createdAt,value
2023-01-23T00:01:28.130Z,17.10
2023-01-23T00:03:55.864Z,14.60
2023-01-23T00:06:23.170Z,14.70
2023-01-23T00:08:50.429Z,14.80
2023-01-23T00:11:24.027Z,16.80
2023-01-23T00:13:57.321Z,17.30
2023-01-23T00:16:25.212Z,14.30
2023-01-23T00:18:52.357Z,14.80
2023-01-23T00:21:26.387Z,13.90
2023-01-23T00:23:54.913Z,14.70
2023-01-23T00:26:23.904Z,15.70
2023-01-23T00:28:51.316Z,15.70
2023-01-23T00:31:29.577Z,14.60
2023-01-23T00:34:11.393Z,12.50
2023-01-23T00:36:39.228Z,14.40
2023-01-23T00:39:17.418Z,14.00
2023-01-23T00:41:45.922Z,13.60
2023-01-23T00:44:18.406Z,13.50
2023-01-23T00:46:45.878Z,13.80
2023-01-23T00:49:12.943Z,13.30
2023-01-23T00:51:39.920Z,12.10
2023-01-23T00:54:07.010Z,17.90
2023-01-23T00:56:34.172Z,12.50
2023-01-23T00:59:01.313Z,13.90
2023-01-23T01:01:29.215Z,12.60
2023-01-23T01:03:56.406Z,15.50
2023-01-23T01:06:23.589Z,11.80
2023-01-23T01:08:50.627Z,14.30
2023-01-23T01:11:17.679Z,13.10
2023-01-23T01:13:50.031Z,13.10
2023-01-23T01:16:24.500Z,13.40
2023-01-23T01:18:51.689Z,16.80
2023-01-23T01:21:19.890Z,12.00
2023-01-23T01:23:47.039Z,14.20
2023-01-23T01:26:14.189Z,15.20
2023-01-23T01:28:42.672Z,12.60
2023-01-23T01:31:12.252Z,15.70
2023-01-23T01:33:45.002Z,13.90
2023-01-23T01:36:13.542Z,14.20
2023-01-23T01:38:40.893Z,17.80
2023-01-23T01:41:08.574Z,11.10
2023-01-23T01:43:36.127Z,10.70
2023-01-23T01:46:24.075Z,13.60
2023-01-23T01:49:09.739Z,9.40
2023-01-23T01:51:56.019Z,12.10
2023-01-23T01:54:37.826Z,12.80
2023-01-23T01:57:44.504Z,15.40
2023-01-23T02:00:16.687Z,14.50
2023-01-23T02:02:59.090Z,14.30
2023-01-23T02:05:27.069Z,13.90
2023-01-23T02:08:09.593Z,13.40
2023-01-23T02:10:44.593Z,11.70
2023-01-23T02:13:26.184Z,12.70
2023-01-23T02:15:58.481Z,13.90
2023-01-23T02:18:27.228Z,18.80
2023-01-23T02:21:00.624Z,13.50
2023-01-23T02:23:39.764Z,11.10
2023-01-23T02:26:13.954Z,9.50
2023-01-23T02:28:48.155Z,9.60
2023-01-23T02:31:19.150Z,15.90
2023-01-23T02:33:49.158Z,11.50
2023-01-23T02:36:17.359Z,10.90
2023-01-23T02:38:54.938Z,12.20
2023-01-23T02:41:33.857Z,10.30
2023-01-23T02:44:26.609Z,14.70
2023-01-23T02:46:59.746Z,8.80
2023-01-23T02:49:32.160Z,13.60
2023-01-23T02:51:59.724Z,15.70
2023-01-23T02:54:26.888Z,14.30
2023-01-23T02:56:54.027Z,11.20
2023-01-23T02:59:41.361Z,10.30
2023-01-23T03:02:08.638Z,14.20
2023-01-23T03:04:40.867Z,14.10
2023-01-23T03:07:07.908Z,11.70
2023-01-23T03:09:35.063Z,10.80
2023-01-23T03:12:09.382Z,11.40
2023-01-23T03:14:38.026Z,11.90
2023-01-23T03:17:05.057Z,8.90
2023-01-23T03:19:39.589Z,11.20
2023-01-23T03:22:07.269Z,18.50
2023-01-23T03:24:34.589Z,11.30
2023-01-23T03:27:06.780Z,11.10
2023-01-23T03:29:57.747Z,9.50
2023-01-23T03:32:36.075Z,11.20
2023-01-23T03:35:04.521Z,10.40
2023-01-23T03:37:31.652Z,16.30
2023-01-23T03:40:23.000Z,13.50
2023-01-23T03:42:50.080Z,13.50
2023-01-23T03:45:23.015Z,9.00
2023-01-23T03:47:51.297Z,17.60
2023-01-23T03:50:18.672Z,18.50
2023-01-23T03:52:51.151Z,14.60
2023-01-23T03:55:18.375Z,12.90
2023-01-23T03:57:46.149Z,14.50
2023-01-23T04:00:19.843Z,9.40
2023-01-23T04:02:55.408Z,12.10
2023-01-23T04:05:22.949Z,15.10
2023-01-23T04:07:50.101Z,12.50
2023-01-23T04:10:22.508Z,13.40
2023-01-23T04:12:53.448Z,10.70
2023-01-23T04:15:20.658Z,9.80
2023-01-23T04:17:48.114Z,16.50
2023-01-23T04:20:20.620Z,7.10
2023-01-23T04:22:47.902Z,11.30
2023-01-23T04:25:20.213Z,15.70
2023-01-23T04:27:47.575Z,12.10
2023-01-23T04:30:14.626Z,11.90
2023-01-23T04:32:46.818Z,8.40
2023-01-23T04:35:14.650Z,13.00
2023-01-23T04:44:59.260Z,11.80
2023-01-23T04:47:32.589Z,15.30
2023-01-23T04:50:00.847Z,19.10
2023-01-23T04:52:29.411Z,21.80
2023-01-23T04:54:57.730Z,21.00
2023-01-23T04:57:30.486Z,17.80
2023-01-23T05:00:04.377Z,13.40
2023-01-23T05:02:37.305Z,21.60
2023-01-23T05:05:09.941Z,15.40
2023-01-23T05:07:43.946Z,15.00
2023-01-23T05:10:15.090Z,15.40
2023-01-23T05:12:43.059Z,14.80
2023-01-23T05:15:10.522Z,17.40
2023-01-23T05:17:39.308Z,19.70
2023-01-23T05:20:07.492Z,18.80
2023-01-23T05:22:42.103Z,17.70
2023-01-23T05:25:10.276Z,20.70
2023-01-23T05:27:37.533Z,24.20
2023-01-23T05:30:05.497Z,22.80
2023-01-23T05:32:34.300Z,24.70
2023-01-23T05:35:15.072Z,20.30
2023-01-23T05:37:43.460Z,27.70
2023-01-23T05:40:11.441Z,23.50
2023-01-23T05:42:57.398Z,23.40
2023-01-23T05:45:44.830Z,20.00
2023-01-23T05:48:20.143Z,22.70
2023-01-23T05:50:47.311Z,21.10
2023-01-23T05:53:14.671Z,23.60
2023-01-23T05:55:44.297Z,19.40
2023-01-23T05:58:13.019Z,16.90
2023-01-23T06:00:57.005Z,24.60
2023-01-23T06:03:43.206Z,21.80
2023-01-23T06:06:41.564Z,24.90
2023-01-23T06:09:09.357Z,23.00
2023-01-23T06:11:38.778Z,24.60
2023-01-23T06:14:06.963Z,25.80
2023-01-23T06:16:34.431Z,23.80
2023-01-23T06:19:01.563Z,51.90
2023-01-23T06:21:30.322Z,25.60
2023-01-23T06:24:01.132Z,23.00
2023-01-23T06:26:28.263Z,23.50
2023-01-23T06:28:56.071Z,27.20
2023-01-23T06:31:24.050Z,22.40
2023-01-23T06:33:58.052Z,23.70
2023-01-23T06:36:29.403Z,25.80
2023-01-23T06:39:03.303Z,26.70
2023-01-23T06:41:36.190Z,20.50
2023-01-23T06:44:04.672Z,25.20
2023-01-23T06:46:33.592Z,28.00
2023-01-23T06:49:06.131Z,24.70
2023-01-23T06:51:34.711Z,26.60
2023-01-23T06:54:01.871Z,25.40
2023-01-23T06:56:29.373Z,33.50
2023-01-23T06:58:56.474Z,28.60
2023-01-23T07:01:29.758Z,23.70
2023-01-23T07:04:15.145Z,24.70
2023-01-23T07:06:43.365Z,29.80
2023-01-23T07:09:11.102Z,23.80
2023-01-23T07:11:39.132Z,27.10
2023-01-23T07:14:06.571Z,25.70
2023-01-23T07:16:35.374Z,26.60
2023-01-23T07:19:04.739Z,25.00
2023-01-23T07:21:32.864Z,29.10
2023-01-23T07:23:59.766Z,22.50
2023-01-23T07:26:26.763Z,29.20
2023-01-23T07:28:53.587Z,29.00
2023-01-23T07:31:21.082Z,23.80
2023-01-23T07:33:50.027Z,25.00
2023-01-23T07:36:17.907Z,26.50
2023-01-23T07:38:44.675Z,28.40
2023-01-23T07:41:13.769Z,25.30
2023-01-23T07:43:40.556Z,29.30
2023-01-23T07:46:09.540Z,30.50
2023-01-23T07:48:39.561Z,26.70
2023-01-23T07:51:07.125Z,34.10
2023-01-23T07:53:34.026Z,29.90
2023-01-23T07:56:04.449Z,24.80
2023-01-23T07:58:32.208Z,22.00
2023-01-23T08:01:00.297Z,25.00
2023-01-23T08:03:29.676Z,21.00
2023-01-23T08:06:01.647Z,30.40
2023-01-23T08:08:30.158Z,22.80
2023-01-23T08:10:56.965Z,20.10
2023-01-23T08:13:23.883Z,23.60
2023-01-23T08:15:52.773Z,25.10
2023-01-23T08:18:19.581Z,25.70
2023-01-23T08:20:53.147Z,32.30
2023-01-23T08:23:23.570Z,23.40
2023-01-23T08:25:54.997Z,30.10
2023-01-23T08:28:22.143Z,26.30
2023-01-23T08:30:49.618Z,24.80
2023-01-23T08:33:18.065Z,22.30
2023-01-23T08:35:56.582Z,33.40
2023-01-23T08:38:24.203Z,33.10
2023-01-23T08:40:52.283Z,26.30
2023-01-23T08:43:20.269Z,29.70
2023-01-23T08:45:51.415Z,34.60
2023-01-23T08:48:19.932Z,24.90
2023-01-23T08:50:47.405Z,27.20
2023-01-23T08:53:15.039Z,26.60
2023-01-23T08:55:42.125Z,27.90
2023-01-23T08:58:12.423Z,25.30
2023-01-23T09:00:39.596Z,30.40
2023-01-23T09:03:06.641Z,27.00
2023-01-23T09:05:33.951Z,25.90
2023-01-23T09:08:07.115Z,25.40
2023-01-23T09:10:37.619Z,32.50
2023-01-23T09:13:04.689Z,26.10
2023-01-23T09:15:31.964Z,25.00
2023-01-23T09:17:59.494Z,30.00
2023-01-23T09:20:28.573Z,31.20
2023-01-23T09:22:55.831Z,27.00
2023-01-23T09:25:22.743Z,32.90
2023-01-23T09:27:50.044Z,33.70
2023-01-23T09:30:17.349Z,31.00
2023-01-23T09:32:44.569Z,38.10
2023-01-23T09:35:11.402Z,29.70
2023-01-23T09:38:00.319Z,39.30
2023-01-23T09:40:35.161Z,31.40
2023-01-23T09:43:13.680Z,33.30
2023-01-23T09:45:41.591Z,39.40
2023-01-23T09:48:20.945Z,32.00
2023-01-23T09:50:56.302Z,29.80
2023-01-23T09:53:26.039Z,29.30
2023-01-23T09:55:58.058Z,28.10
2023-01-23T09:58:28.291Z,30.10
2023-01-23T10:00:55.470Z,24.30
2023-01-23T10:03:23.165Z,32.60
2023-01-23T10:06:13.712Z,25.20
2023-01-23T10:08:56.323Z,18.20
2023-01-23T10:11:37.858Z,21.90
2023-01-23T10:14:04.766Z,22.60
2023-01-23T10:16:50.911Z,25.60
2023-01-23T10:19:21.287Z,20.60
2023-01-23T10:21:53.911Z,20.20
2023-01-23T10:24:46.137Z,19.70
2023-01-23T10:27:19.424Z,18.50
2023-01-23T10:30:18.261Z,18.30
2023-01-23T10:32:54.592Z,27.60
2023-01-23T10:35:29.101Z,20.60
2023-01-23T10:38:05.092Z,20.40
2023-01-23T10:40:52.364Z,23.40
2023-01-23T10:43:20.488Z,18.70
2023-01-23T10:45:48.341Z,20.90
2023-01-23T10:48:39.131Z,23.60
2023-01-23T10:51:32.282Z,33.50
2023-01-23T10:54:33.736Z,26.30
2023-01-23T10:57:08.370Z,27.40
2023-01-23T10:59:47.985Z,26.60
2023-01-23T11:02:15.449Z,26.70
2023-01-23T11:04:43.968Z,26.60
2023-01-23T11:07:18.848Z,21.60
2023-01-23T11:09:46.947Z,18.60
2023-01-23T11:12:22.932Z,22.00
2023-01-23T11:14:50.352Z,20.40
2023-01-23T11:17:20.687Z,23.90
2023-01-23T11:19:53.110Z,26.70
2023-01-23T11:22:24.209Z,23.70
2023-01-23T11:24:51.624Z,19.90
2023-01-23T11:27:30.831Z,19.30
2023-01-23T11:30:21.925Z,22.40
2023-01-23T11:32:56.253Z,20.20
2023-01-23T11:35:57.700Z,17.90
2023-01-23T11:38:31.505Z,20.80
2023-01-23T11:40:58.669Z,25.10
2023-01-23T11:43:25.540Z,20.90
2023-01-23T11:46:02.157Z,22.20
2023-01-23T11:48:54.083Z,19.70
2023-01-23T11:51:41.550Z,18.00
2023-01-23T11:54:48.742Z,17.90
2023-01-23T11:57:42.157Z,18.00
2023-01-23T12:00:17.279Z,22.00
2023-01-23T12:03:02.936Z,20.10
2023-01-23T12:08:58.149Z,18.90
2023-01-23T12:11:24.993Z,20.90
2023-01-23T12:13:55.411Z,16.10
2023-01-23T12:16:57.521Z,20.00
2023-01-23T12:19:33.382Z,20.40
2023-01-23T12:22:03.074Z,22.40
2023-01-23T12:24:49.495Z,17.40
2023-01-23T12:27:43.506Z,18.60
2023-01-23T12:30:25.293Z,21.70
2023-01-23T12:32:55.659Z,20.50
2023-01-23T12:35:26.182Z,22.60
2023-01-23T12:38:06.648Z,23.50
2023-01-23T12:40:39.562Z,18.50
2023-01-23T12:43:10.946Z,24.70
2023-01-23T12:45:41.372Z,21.80
2023-01-23T12:48:18.087Z,24.20
2023-01-23T12:50:47.058Z,27.60
2023-01-23T12:53:16.360Z,19.00
2023-01-23T12:56:03.852Z,20.30
2023-01-23T12:58:35.484Z,20.20
2023-01-23T13:01:06.197Z,24.40
2023-01-23T13:04:26.997Z,20.60
2023-01-23T13:06:56.891Z,21.80
2023-01-23T17:00:03.394Z,26.20
2023-01-23T17:02:30.789Z,30.90
2023-01-23T17:04:58.219Z,28.00
2023-01-23T17:07:25.313Z,32.70
2023-01-23T17:09:52.701Z,25.40
2023-01-23T17:12:28.487Z,27.40
2023-01-23T17:14:55.953Z,35.00
2023-01-23T17:17:34.803Z,31.40
2023-01-23T17:20:04.833Z,44.60
2023-01-23T17:22:38.724Z,26.30
2023-01-23T17:25:25.257Z,28.60
2023-01-23T17:28:07.299Z,29.70
2023-01-23T17:30:39.472Z,30.20
2023-01-23T17:33:20.617Z,27.90
2023-01-23T17:35:48.581Z,26.20
2023-01-23T17:38:17.500Z,31.90
2023-01-23T17:40:44.899Z,33.70
2023-01-23T17:43:13.684Z,34.00
2023-01-23T17:45:41.088Z,36.30
2023-01-23T17:48:12.858Z,30.40
2023-01-23T17:50:43.898Z,33.90
2023-01-23T17:53:15.274Z,27.40
2023-01-23T17:55:46.337Z,36.20
2023-01-23T17:58:13.700Z,32.20
2023-01-23T18:00:49.002Z,37.60
2023-01-23T18:03:19.610Z,29.00
2023-01-23T18:05:50.463Z,36.50
2023-01-23T18:08:23.917Z,28.60
2023-01-23T18:10:53.083Z,27.10
2023-01-23T18:13:34.658Z,28.20
2023-01-23T18:16:07.866Z,24.60
2023-01-23T18:18:37.008Z,25.00
2023-01-23T18:21:06.165Z,22.20
2023-01-23T18:23:37.030Z,25.60
2023-01-23T18:26:13.491Z,23.30
2023-01-23T18:28:52.535Z,32.50
2023-01-23T18:31:38.840Z,49.60
2023-01-23T18:34:36.870Z,53.30
2023-01-23T18:37:34.375Z,46.80
2023-01-23T18:40:33.775Z,38.30
2023-01-23T18:43:13.955Z,39.70
2023-01-23T18:45:41.510Z,42.40
2023-01-23T18:48:25.441Z,31.20
2023-01-23T18:51:20.238Z,34.60
2023-01-23T18:54:17.237Z,32.30
2023-01-23T18:57:09.940Z,27.80
2023-01-23T19:00:00.312Z,27.20
2023-01-23T19:02:36.550Z,26.40
2023-01-23T19:07:31.038Z,27.30
2023-01-23T19:09:58.149Z,28.10
2023-01-23T19:12:40.923Z,27.10
2023-01-23T19:15:20.318Z,37.80
2023-01-23T19:18:02.722Z,28.90
2023-01-23T19:20:40.386Z,30.50
2023-01-23T19:23:35.347Z,30.40
2023-01-23T19:26:02.763Z,39.30
2023-01-23T19:28:30.054Z,28.80
2023-01-23T19:30:57.338Z,31.80
2023-01-23T19:33:24.213Z,30.60
2023-01-23T19:35:54.299Z,29.70
2023-01-23T19:38:23.470Z,35.20
2023-01-23T19:40:51.281Z,35.40
2023-01-23T19:43:23.847Z,39.00
2023-01-23T19:45:52.846Z,34.90
2023-01-23T19:48:19.826Z,39.40
2023-01-23T19:50:52.244Z,38.60
2023-01-23T19:53:20.535Z,34.70
2023-01-23T19:55:47.776Z,40.10
2023-01-23T19:58:19.819Z,36.30
2023-01-23T20:00:46.669Z,34.80
2023-01-23T20:03:14.291Z,33.80
2023-01-23T20:05:46.685Z,35.70
2023-01-23T20:08:13.709Z,31.60
2023-01-23T20:10:40.551Z,31.10
2023-01-23T20:13:08.291Z,32.40
2023-01-23T20:15:35.589Z,33.00
2023-01-23T20:18:03.506Z,32.80
2023-01-23T20:20:30.392Z,33.50
2023-01-23T20:22:57.337Z,28.60
2023-01-23T20:25:25.677Z,27.90
2023-01-23T20:27:52.597Z,31.70
2023-01-23T20:30:25.025Z,31.60
2023-01-23T20:32:59.728Z,27.90
2023-01-23T20:35:28.322Z,27.40
2023-01-23T20:38:00.818Z,31.90
2023-01-23T20:40:27.942Z,23.60
2023-01-23T20:42:55.090Z,32.10
2023-01-23T20:45:22.415Z,27.90
2023-01-23T20:47:51.964Z,34.40
2023-01-23T20:50:19.539Z,28.50
2023-01-23T20:53:06.620Z,27.60
2023-01-23T20:55:34.511Z,28.60
2023-01-23T20:58:25.499Z,31.50
2023-01-23T21:00:52.341Z,27.30
2023-01-23T21:03:19.653Z,31.20
2023-01-23T21:05:47.095Z,30.30
2023-01-23T21:08:19.891Z,33.40
2023-01-23T21:10:46.926Z,32.40
2023-01-23T21:13:16.869Z,34.30
2023-01-23T21:15:43.907Z,39.20
2023-01-23T21:18:10.816Z,39.30
2023-01-23T21:20:39.969Z,35.10
2023-01-23T21:23:06.996Z,31.30
2023-01-23T21:25:35.214Z,37.80
2023-01-23T21:28:02.007Z,33.10
2023-01-23T21:30:29.291Z,31.60
2023-01-23T21:32:56.088Z,33.70
2023-01-23T21:35:23.780Z,31.00
2023-01-23T21:37:50.938Z,34.80
2023-01-23T21:40:23.088Z,33.90
2023-01-23T21:42:50.158Z,31.30
2023-01-23T21:45:16.960Z,29.20
2023-01-23T21:47:43.728Z,30.20
2023-01-23T21:50:17.774Z,29.60
2023-01-23T21:52:44.546Z,28.70
2023-01-23T21:55:11.376Z,30.30
2023-01-23T21:57:43.508Z,28.30
2023-01-23T22:00:29.430Z,32.30
2023-01-23T22:02:56.397Z,26.10
2023-01-23T22:05:23.575Z,26.80
2023-01-23T22:07:55.634Z,26.70
2023-01-23T22:10:22.469Z,27.60
2023-01-23T22:12:54.580Z,26.20
2023-01-23T22:15:26.606Z,24.40
2023-01-23T22:17:53.424Z,25.10
2023-01-23T22:20:20.677Z,24.30
2023-01-23T22:22:47.537Z,25.70
2023-01-23T22:25:14.638Z,26.70
2023-01-23T22:27:41.429Z,26.20
2023-01-23T22:30:08.634Z,24.20
2023-01-23T22:32:35.514Z,24.40
2023-01-23T22:35:02.297Z,25.60
